Time;durP1;ratioP1;P1;durP2;ratioP2;P2;SDS_P1;SDS_P2;PMS_P1;PMS_P2;Temp;Humidity;BMP_temperature;BMP_pressure;BME280_temperature;BME280_humidity;BME280_pressure;Samples;Min_cycle;Max_cycle;Signal;HPM_P1;HPM_P2
2023/03/23 00:00:38;;;;;;;2.30;1.90;;;;;;;11.43;67.65;100084.44;7397216;19;20014;-69
2023/03/23 00:03:07;;;;;;;2.92;2.10;;;;;;;11.39;67.72;100081.88;7397690;19;20025;-68
2023/03/23 00:05:36;;;;;;;6.10;3.67;;;;;;;11.36;67.86;100068.00;7397889;19;20018;-68
2023/03/23 00:08:05;;;;;;;2.75;2.25;;;;;;;11.32;68.08;100069.03;7397824;19;20018;-68
2023/03/23 00:10:37;;;;;;;3.33;2.50;;;;;;;11.28;68.05;100065.66;7397393;19;20025;-69
2023/03/23 00:13:06;;;;;;;3.22;1.95;;;;;;;11.24;68.12;100067.53;7394731;19;20018;-69
2023/03/23 00:15:35;;;;;;;2.25;1.98;;;;;;;11.22;68.25;100058.88;7397198;19;20018;-70
2023/03/23 00:18:04;;;;;;;2.75;1.80;;;;;;;11.19;68.29;100058.97;7396994;19;20015;-68
2023/03/23 00:20:39;;;;;;;3.63;2.20;;;;;;;11.18;68.51;100053.78;7396974;19;20053;-68
2023/03/23 00:23:08;;;;;;;2.95;1.90;;;;;;;11.15;68.41;100041.63;7395035;19;20015;-69
2023/03/23 00:25:39;;;;;;;4.07;2.08;;;;;;;11.13;68.48;100038.19;7396833;19;20390;-69
2023/03/23 00:28:07;;;;;;;3.20;1.83;;;;;;;11.13;68.46;100038.19;7395815;19;20074;-69
2023/03/23 00:30:37;;;;;;;3.25;1.73;;;;;;;11.12;68.37;100044.38;7394630;19;20078;-69
2023/03/23 00:33:05;;;;;;;2.17;1.67;;;;;;;11.13;68.53;100034.69;7395973;19;20476;-69
2023/03/23 00:35:34;;;;;;;3.35;1.63;;;;;;;11.11;68.31;100026.88;7396516;19;20087;-68
2023/03/23 00:38:04;;;;;;;3.90;1.60;;;;;;;11.10;68.41;100029.56;7396465;19;20015;-68
2023/03/23 00:40:35;;;;;;;2.25;1.77;;;;;;;11.10;68.42;100026.94;7396045;19;20082;-68
2023/03/23 00:43:06;;;;;;;3.20;1.85;;;;;;;11.09;68.44;100026.06;7396468;19;20022;-68
2023/03/23 00:45:36;;;;;;;4.20;1.73;;;;;;;11.07;68.43;100026.13;7394999;19;20017;-69
2023/03/23 00:48:04;;;;;;;2.45;1.80;;;;;;;11.07;68.55;100020.88;7394222;19;20356;-68
2023/03/23 00:50:34;;;;;;;4.15;1.83;;;;;;;11.06;68.57;100021.78;7396368;19;20014;-68
2023/03/23 00:53:02;;;;;;;4.90;1.88;;;;;;;11.05;68.59;100016.59;7395768;19;20078;-68
2023/03/23 00:55:30;;;;;;;3.45;2.33;;;;;;;11.04;68.59;100020.13;7395917;19;20015;-69
2023/03/23 00:57:59;;;;;;;2.67;1.75;;;;;;;11.03;68.73;100015.78;7396155;19;20073;-69
2023/03/23 01:00:30;;;;;;;3.70;1.90;;;;;;;11.01;68.69;100007.97;7395985;19;20369;-69
2023/03/23 01:02:59;;;;;;;3.28;1.83;;;;;;;11.02;68.91;100016.69;7395955;19;20086;-69
2023/03/23 01:05:31;;;;;;;3.10;1.70;;;;;;;11.01;68.99;100012.38;7395592;19;20506;-68
2023/03/23 01:08:01;;;;;;;2.60;1.90;;;;;;;10.99;68.87;100006.31;7394641;19;20014;-68
2023/03/23 01:10:32;;;;;;;2.60;1.92;;;;;;;10.97;68.88;100005.50;7395811;19;20018;-69
2023/03/23 01:13:01;;;;;;;3.42;2.05;;;;;;;10.97;68.84;100000.25;7395607;19;20018;-69
2023/03/23 01:15:32;;;;;;;3.08;1.85;;;;;;;10.96;68.91;100003.81;7395722;19;20093;-69
2023/03/23 01:18:00;;;;;;;3.60;2.25;;;;;;;10.95;68.85;99994.22;7395352;19;20082;-69
2023/03/23 01:20:31;;;;;;;2.35;1.70;;;;;;;10.95;68.97;99994.22;7395513;19;20014;-69
2023/03/23 01:23:00;;;;;;;2.33;1.55;;;;;;;10.96;68.83;99995.94;7395369;19;20039;-69
2023/03/23 01:25:30;;;;;;;3.67;1.88;;;;;;;10.95;68.80;99999.47;7394496;19;20015;-69
2023/03/23 01:27:58;;;;;;;4.40;1.70;;;;;;;10.94;68.85;99995.97;7395416;19;20026;-68
2023/03/23 01:30:27;;;;;;;3.78;1.80;;;;;;;10.95;68.76;99994.22;7393301;19;20480;-68
2023/03/23 01:32:59;;;;;;;3.50;2.13;;;;;;;10.95;68.51;99994.22;7392926;19;20431;-68
2023/03/23 01:35:27;;;;;;;1.90;1.42;;;;;;;10.94;68.39;99987.25;7393110;19;20019;-68
2023/03/23 01:37:56;;;;;;;1.63;1.52;;;;;;;10.93;68.57;99986.38;7394688;19;20021;-68
2023/03/23 01:40:25;;;;;;;4.90;1.70;;;;;;;10.94;68.63;99980.22;7393361;19;20031;-68
2023/03/23 01:42:53;;;;;;;2.90;2.15;;;;;;;10.92;68.75;99980.28;7392685;19;20015;-68
2023/03/23 01:45:32;;;;;;;2.92;1.63;;;;;;;10.91;68.23;99986.44;7393180;19;20017;-68
2023/03/23 01:48:20;;;;;;;2.70;1.83;;;;;;;10.90;68.45;99989.13;7392704;19;20031;-68
2023/03/23 01:50:54;;;;;;;4.40;1.95;;;;;;;10.88;68.20;99993.56;7394488;19;20524;-68
2023/03/23 01:53:24;;;;;;;8.35;1.70;;;;;;;10.86;68.76;99990.16;7394042;19;20018;-68
2023/03/23 01:55:55;;;;;;;3.20;2.00;;;;;;;10.83;68.64;99987.63;7392744;19;20039;-68
2023/03/23 01:58:30;;;;;;;4.28;1.83;;;;;;;10.81;68.66;99985.06;7394962;19;20018;-69
2023/03/23 02:01:01;;;;;;;2.10;1.65;;;;;;;10.81;68.88;99984.22;7394267;19;20447;-69
2023/03/23 02:03:34;;;;;;;2.63;1.80;;;;;;;10.78;68.44;99982.56;7393745;19;20019;-69
2023/03/23 02:06:03;;;;;;;2.87;2.07;;;;;;;10.78;68.80;99981.69;7394420;19;20018;-70
2023/03/23 02:08:33;;;;;;;2.97;1.90;;;;;;;10.78;68.84;99981.69;7394395;19;20082;-70
2023/03/23 02:11:02;;;;;;;2.42;1.58;;;;;;;10.79;68.76;99980.78;7394255;19;20014;-70
2023/03/23 02:13:31;;;;;;;3.10;1.70;;;;;;;10.76;68.89;99972.09;7393649;19;20458;-68
2023/03/23 02:16:08;;;;;;;2.85;1.65;;;;;;;10.79;68.82;99971.13;7393939;19;20070;-68
2023/03/23 02:18:57;;;;;;;2.97;1.75;;;;;;;10.80;68.51;99978.09;7391675;19;20015;-69
2023/03/23 02:22:07;;;;;;;3.60;1.52;;;;;;;10.80;68.66;99964.97;7392315;19;20017;-68
2023/03/23 02:24:56;;;;;;;2.58;1.77;;;;;;;10.83;68.73;99970.13;7391945;19;20078;-68
2023/03/23 02:27:47;;;;;;;3.25;1.88;;;;;;;10.82;68.97;99968.41;7393825;19;20062;-68
2023/03/23 02:30:39;;;;;;;4.45;1.40;;;;;;;10.85;68.63;99965.66;7393000;19;20431;-67
2023/03/23 02:33:32;;;;;;;2.45;1.50;;;;;;;10.86;68.46;99972.63;7392607;19;20015;-67
2023/03/23 02:36:04;;;;;;;2.40;1.50;;;;;;;10.87;68.63;99973.50;7395506;19;20086;-68
2023/03/23 02:38:38;;;;;;;3.55;1.77;;;;;;;10.88;68.31;99970.81;7401271;19;20015;-67
2023/03/23 02:41:07;;;;;;;2.40;1.67;;;;;;;10.92;68.26;99971.56;7400153;19;20423;-67
2023/03/23 02:43:41;;;;;;;2.15;1.70;;;;;;;10.94;68.21;99966.25;7397658;19;20014;-68
2023/03/23 02:46:12;;;;;;;3.97;1.70;;;;;;;10.97;68.49;99966.13;7397461;19;20014;-68
2023/03/23 02:48:48;;;;;;;4.45;2.97;;;;;;;10.98;68.49;99966.09;7398478;19;20022;-68
2023/03/23 02:51:18;;;;;;;2.58;2.05;;;;;;;11.00;68.94;99952.91;7400782;19;20025;-68
2023/03/23 02:53:47;;;;;;;4.28;2.25;;;;;;;11.00;69.15;99948.50;7398269;19;20019;-68
2023/03/23 02:56:17;;;;;;;3.95;2.10;;;;;;;10.99;69.22;99956.44;7400061;19;20018;-67
2023/03/23 02:58:45;;;;;;;2.53;1.60;;;;;;;10.97;69.66;99953.00;7400124;19;20028;-69
2023/03/23 03:02:01;;;;;;;3.10;1.70;;;;;;;10.96;69.78;99946.06;7401978;19;20025;-68
2023/03/23 03:04:36;;;;;;;3.58;2.00;;;;;;;10.94;70.07;99942.63;7399677;19;20082;-67
2023/03/23 03:07:18;;;;;;;4.93;1.90;;;;;;;10.90;70.25;99941.88;7399299;19;20014;-68
2023/03/23 03:09:53;;;;;;;4.35;2.03;;;;;;;10.88;70.48;99939.31;7397422;19;20021;-67
2023/03/23 03:12:33;;;;;;;2.65;1.75;;;;;;;10.86;70.78;99930.63;7399339;19;20422;-68
2023/03/23 03:15:14;;;;;;;2.03;1.60;;;;;;;10.83;70.60;99933.38;7399108;19;20015;-68
2023/03/23 03:17:50;;;;;;;2.08;1.55;;;;;;;10.82;71.03;99936.91;7399806;19;20011;-67
2023/03/23 03:20:25;;;;;;;3.15;1.90;;;;;;;10.83;71.03;99924.63;7399813;19;20031;-67
2023/03/23 03:22:54;;;;;;;3.78;1.73;;;;;;;10.83;71.27;99936.00;7397943;19;20019;-67
2023/03/23 03:25:23;;;;;;;4.32;1.67;;;;;;;10.83;71.13;99930.75;7399196;19;20038;-68
2023/03/23 03:27:52;;;;;;;1.80;1.55;;;;;;;10.83;71.22;99922.00;7398759;19;20486;-67
2023/03/23 03:30:23;;;;;;;2.10;1.60;;;;;;;10.83;71.38;99929.88;7399206;19;20031;-68
2023/03/23 03:32:54;;;;;;;2.13;1.50;;;;;;;10.83;71.31;99933.38;7396677;19;20022;-67
2023/03/23 03:35:26;;;;;;;2.17;1.73;;;;;;;10.83;71.12;99920.25;7399108;19;20379;-69
2023/03/23 03:37:57;;;;;;;2.97;1.52;;;;;;;10.82;71.16;99921.19;7398916;19;20018;-69
2023/03/23 03:40:26;;;;;;;1.83;1.40;;;;;;;10.84;71.05;99921.09;7397005;19;20086;-67
2023/03/23 03:42:54;;;;;;;3.03;1.67;;;;;;;10.84;70.80;99911.50;7397100;19;20067;-67
2023/03/23 03:45:23;;;;;;;1.80;1.40;;;;;;;10.86;70.72;99914.91;7395756;19;20007;-68
2023/03/23 03:47:51;;;;;;;2.67;1.58;;;;;;;10.86;70.62;99914.91;7397928;19;20007;-68
2023/03/23 03:50:20;;;;;;;3.78;1.70;;;;;;;10.89;70.31;99916.56;7397977;19;20018;-68
2023/03/23 03:52:52;;;;;;;3.63;1.80;;;;;;;10.90;70.30;99911.25;7397844;19;20042;-68
2023/03/23 03:55:21;;;;;;;4.68;1.40;;;;;;;10.92;70.31;99909.44;7398729;19;20078;-67
2023/03/23 03:57:49;;;;;;;1.75;1.52;;;;;;;10.94;70.18;99905.91;7398245;19;20011;-68
2023/03/23 04:00:19;;;;;;;2.85;1.50;;;;;;;10.94;70.47;99901.50;7398133;19;20074;-67
2023/03/23 04:02:51;;;;;;;3.15;1.42;;;;;;;10.96;70.10;99899.69;7396459;19;20077;-67
2023/03/23 04:05:20;;;;;;;2.42;1.50;;;;;;;10.97;69.94;99896.16;7398269;19;20028;-67
2023/03/23 04:07:52;;;;;;;3.05;1.27;;;;;;;10.98;69.82;99912.75;7397403;19;20348;-67
2023/03/23 04:10:27;;;;;;;2.72;1.40;;;;;;;11.00;69.56;99908.28;7398069;19;20014;-68
2023/03/23 04:12:56;;;;;;;2.50;1.50;;;;;;;11.00;69.68;99909.13;7396609;19;20015;-67
2023/03/23 04:15:25;;;;;;;2.53;1.58;;;;;;;11.04;69.54;99907.25;7397152;19;20006;-67
2023/03/23 04:17:53;;;;;;;2.67;1.98;;;;;;;11.05;69.39;99906.34;7397211;19;20014;-68
2023/03/23 04:20:22;;;;;;;2.42;1.55;;;;;;;11.07;69.29;99913.25;7397441;19;20086;-67
2023/03/23 04:22:54;;;;;;;2.88;1.75;;;;;;;11.09;69.04;99915.81;7395987;19;20086;-67
2023/03/23 04:25:23;;;;;;;2.15;1.65;;;;;;;11.10;69.22;99907.03;7395835;19;20018;-69
2023/03/23 04:27:54;;;;;;;4.72;1.83;;;;;;;11.13;68.96;99906.06;7396879;19;20022;-68
2023/03/23 04:30:27;;;;;;;2.92;1.58;;;;;;;11.11;69.18;99900.88;7395741;19;20042;-67
2023/03/23 04:32:55;;;;;;;3.35;1.98;;;;;;;11.16;68.82;99904.19;7395505;19;20108;-68
2023/03/23 04:35:26;;;;;;;1.65;1.52;;;;;;;11.15;68.59;99912.13;7396860;19;20021;-67
2023/03/23 04:37:58;;;;;;;2.33;1.50;;;;;;;11.17;68.32;99919.03;7397192;19;20042;-68
2023/03/23 04:40:27;;;;;;;3.20;1.58;;;;;;;11.18;68.62;99915.47;7397150;19;20022;-67
2023/03/23 04:42:57;;;;;;;2.13;1.67;;;;;;;11.20;68.37;99918.06;7395273;19;20018;-67
2023/03/23 04:45:26;;;;;;;3.92;1.60;;;;;;;11.21;68.41;99919.78;7394705;19;20006;-68
2023/03/23 04:47:57;;;;;;;2.60;1.70;;;;;;;11.20;68.31;99911.03;7396425;19;20014;-66
2023/03/23 04:50:26;;;;;;;2.20;1.33;;;;;;;11.21;68.26;99915.38;7396618;19;20081;-68
2023/03/23 04:52:58;;;;;;;2.17;1.50;;;;;;;11.22;68.05;99914.47;7395961;19;20018;-67
2023/03/23 04:55:28;;;;;;;2.58;1.30;;;;;;;11.24;68.03;99917.88;7397026;19;20020;-67
2023/03/23 04:57:59;;;;;;;2.08;1.15;;;;;;;11.25;68.15;99911.69;7395828;19;20090;-67
2023/03/23 05:00:28;;;;;;;3.00;1.33;;;;;;;11.28;68.09;99910.72;7395083;19;20018;-67
2023/03/23 05:02:57;;;;;;;2.05;1.50;;;;;;;11.29;68.04;99920.31;7394556;19;20369;-67
2023/03/23 05:05:27;;;;;;;3.42;1.50;;;;;;;11.30;68.01;99918.53;7394211;19;20027;-67
2023/03/23 05:07:58;;;;;;;2.00;1.48;;;;;;;11.31;68.11;99915.00;7395409;19;20018;-67
2023/03/23 05:10:27;;;;;;;3.00;1.55;;;;;;;11.31;67.88;99920.25;7394203;19;20015;-67
2023/03/23 05:12:55;;;;;;;3.33;1.08;;;;;;;11.32;67.89;99921.97;7393947;19;20014;-68
2023/03/23 05:15:24;;;;;;;3.83;1.73;;;;;;;11.31;67.88;99923.75;7395117;19;20015;-68
2023/03/23 05:17:55;;;;;;;5.65;3.15;;;;;;;11.32;67.82;99921.97;7395328;19;20018;-68
2023/03/23 05:20:24;;;;;;;8.05;4.18;;;;;;;11.31;68.31;99921.13;7394754;19;20018;-68
2023/03/23 05:22:53;;;;;;;5.65;3.80;;;;;;;11.32;68.19;99921.97;7394146;19;20018;-67
2023/03/23 05:25:24;;;;;;;5.47;2.75;;;;;;;11.32;68.27;99925.47;7393088;19;20021;-66
2023/03/23 05:27:53;;;;;;;4.20;2.75;;;;;;;11.32;68.66;99924.59;7394698;19;20070;-67
2023/03/23 05:30:23;;;;;;;2.50;1.83;;;;;;;11.31;68.83;99922.88;7393359;19;20023;-68
2023/03/23 05:32:52;;;;;;;3.03;2.00;;;;;;;11.31;68.91;99936.91;7394253;19;20017;-67
2023/03/23 05:35:22;;;;;;;2.60;1.38;;;;;;;11.30;69.04;99940.44;7394782;19;20503;-68
2023/03/23 05:37:53;;;;;;;2.42;1.30;;;;;;;11.29;69.07;99943.97;7393535;19;20018;-68
2023/03/23 05:40:31;;;;;;;4.47;1.38;;;;;;;11.27;69.29;99937.06;7395018;19;20078;-68
2023/03/23 05:42:59;;;;;;;4.53;1.70;;;;;;;11.25;69.46;99945.84;7396305;19;20086;-69
2023/03/23 05:45:28;;;;;;;3.13;1.30;;;;;;;11.22;69.76;99945.97;7393269;19;20070;-70
2023/03/23 05:47:57;;;;;;;3.40;1.15;;;;;;;11.22;70.02;99945.09;7394796;19;20018;-68
2023/03/23 05:50:26;;;;;;;2.90;1.30;;;;;;;11.19;70.01;99955.72;7394883;19;20025;-69
2023/03/23 05:52:54;;;;;;;2.40;1.13;;;;;;;11.16;70.20;99964.56;7392512;19;20021;-68
2023/03/23 05:55:25;;;;;;;1.83;1.00;;;;;;;11.15;69.56;99968.09;7394449;19;20086;-69
2023/03/23 05:57:53;;;;;;;2.47;1.52;;;;;;;11.18;69.55;99965.34;7394544;19;20095;-70
2023/03/23 06:00:23;;;;;;;2.47;1.20;;;;;;;11.22;69.14;99971.34;7393731;19;20082;-69
2023/03/23 06:02:54;;;;;;;1.92;1.10;;;;;;;11.24;69.24;99966.91;7392483;19;20474;-69
2023/03/23 06:05:23;;;;;;;3.97;1.20;;;;;;;11.27;69.60;99971.19;7392712;19;20357;-69
2023/03/23 06:07:52;;;;;;;3.70;1.33;;;;;;;11.31;69.91;99957.03;7394231;19;20094;-68
2023/03/23 06:10:20;;;;;;;3.85;1.17;;;;;;;11.32;70.24;99958.75;7395903;19;20010;-68
2023/03/23 06:12:52;;;;;;;2.20;1.58;;;;;;;11.34;70.71;99970.06;7400422;19;20021;-68
2023/03/23 06:15:21;;;;;;;3.30;1.45;;;;;;;11.33;70.92;99977.06;7400506;19;20041;-69
2023/03/23 06:17:55;;;;;;;2.67;1.00;;;;;;;11.33;71.45;99973.59;7399778;19;20513;-70
2023/03/23 06:20:24;;;;;;;1.45;1.15;;;;;;;11.31;71.66;99983.28;7397866;19;20017;-69
2023/03/23 06:22:53;;;;;;;2.05;1.00;;;;;;;11.29;71.88;99985.97;7396914;19;20023;-69
2023/03/23 06:25:22;;;;;;;4.10;1.38;;;;;;;11.29;72.25;99991.22;7399592;19;20025;-69
2023/03/23 06:27:53;;;;;;;2.55;1.27;;;;;;;11.27;72.85;99992.19;7397513;19;20147;-69
2023/03/23 06:30:22;;;;;;;3.17;1.50;;;;;;;11.24;73.20;100003.66;7399196;19;20022;-70
2023/03/23 06:32:51;;;;;;;2.42;1.60;;;;;;;11.17;74.06;100003.03;7399530;19;20086;-70
2023/03/23 06:35:19;;;;;;;2.53;1.58;;;;;;;11.11;74.70;100007.63;7400813;19;20021;-68
2023/03/23 06:37:48;;;;;;;2.80;1.77;;;;;;;11.03;75.96;100010.53;7400693;19;20019;-70
2023/03/23 06:40:18;;;;;;;7.50;3.00;;;;;;;10.97;77.27;100021.25;7400095;19;20014;-70
2023/03/23 06:42:46;;;;;;;2.63;1.42;;;;;;;10.88;78.67;100022.44;7399133;19;20425;-71
2023/03/23 06:45:19;;;;;;;5.40;2.08;;;;;;;10.78;79.92;100019.28;7398690;19;20074;-69
2023/03/23 06:47:48;;;;;;;1.90;1.42;;;;;;;10.69;81.38;100028.31;7400504;19;20019;-70
2023/03/23 06:50:17;;;;;;;4.18;1.88;;;;;;;10.63;82.33;100030.28;7399801;19;20024;-70
2023/03/23 06:52:48;;;;;;;3.83;1.50;;;;;;;10.54;83.16;100032.31;7399839;19;20042;-70
2023/03/23 06:55:17;;;;;;;2.60;1.33;;;;;;;10.45;84.57;100030.00;7400525;19;20031;-70
2023/03/23 06:57:46;;;;;;;4.45;1.90;;;;;;;10.40;85.42;100024.03;7400159;19;20014;-69
2023/03/23 07:00:18;;;;;;;2.63;1.67;;;;;;;10.35;86.59;100036.38;7397540;19;20085;-70
2023/03/23 07:02:47;;;;;;;3.63;1.83;;;;;;;10.29;87.15;100034.84;7399118;19;20018;-69
2023/03/23 07:05:15;;;;;;;3.30;1.98;;;;;;;10.20;88.37;100022.88;7399713;19;20082;-70
2023/03/23 07:07:44;;;;;;;2.92;2.00;;;;;;;10.21;88.78;100028.97;7399493;19;20018;-69
2023/03/23 07:10:13;;;;;;;2.58;1.88;;;;;;;10.18;89.21;100026.44;7396931;19;20019;-70
2023/03/23 07:12:41;;;;;;;4.53;3.10;;;;;;;10.15;89.88;100023.91;7399018;19;20018;-68
2023/03/23 07:15:12;;;;;;;3.03;2.20;;;;;;;10.12;90.37;100022.25;7400137;19;20018;-68
2023/03/23 07:17:43;;;;;;;6.75;2.45;;;;;;;10.12;90.75;100022.25;7398957;19;20015;-68
2023/03/23 07:20:14;;;;;;;4.60;2.22;;;;;;;10.10;90.95;100013.59;7396088;19;20018;-68
2023/03/23 07:22:43;;;;;;;3.72;2.00;;;;;;;10.10;91.45;100013.59;7396870;19;20549;-69
2023/03/23 07:25:12;;;;;;;2.75;2.33;;;;;;;10.11;91.53;100010.91;7396923;19;20019;-70
2023/03/23 07:27:40;;;;;;;4.53;2.25;;;;;;;10.12;91.86;100014.38;7396481;19;20054;-68
2023/03/23 07:30:10;;;;;;;4.95;2.50;;;;;;;10.13;92.16;100023.97;7398681;19;20014;-68
2023/03/23 07:32:39;;;;;;;5.43;2.42;;;;;;;10.15;92.28;100021.28;7396494;19;20082;-68
2023/03/23 07:35:11;;;;;;;5.65;2.50;;;;;;;10.17;92.40;100025.56;7398860;19;20015;-69
2023/03/23 07:37:39;;;;;;;6.68;3.55;;;;;;;10.16;92.74;100018.66;7397273;19;20014;-69
2023/03/23 07:40:14;;;;;;;5.07;2.88;;;;;;;10.20;92.90;100027.28;7396400;19;20081;-69
2023/03/23 07:42:44;;;;;;;5.10;2.38;;;;;;;10.22;92.88;100018.47;7396156;19;20029;-69
2023/03/23 07:45:14;;;;;;;7.75;3.28;;;;;;;10.27;93.09;100027.03;7395774;19;20021;-69
2023/03/23 07:47:42;;;;;;;7.28;4.15;;;;;;;10.33;93.26;100023.34;7397555;19;20482;-69
2023/03/23 07:50:14;;;;;;;8.02;3.67;;;;;;;10.37;93.41;100018.88;7397797;19;20018;-69
2023/03/23 07:52:43;;;;;;;7.57;3.63;;;;;;;10.42;93.50;99999.47;7396979;19;20486;-68
2023/03/23 07:55:17;;;;;;;6.13;4.13;;;;;;;10.47;93.36;100017.69;7397499;19;20011;-68
2023/03/23 07:57:45;;;;;;;5.32;3.50;;;;;;;10.51;93.34;100014.03;7397572;19;20038;-67
2023/03/23 08:00:18;;;;;;;4.57;3.15;;;;;;;10.52;93.07;100014.91;7397546;19;20085;-68
2023/03/23 08:02:48;;;;;;;5.25;2.78;;;;;;;10.54;93.12;100002.59;7396969;19;20490;-68
2023/03/23 08:05:20;;;;;;;4.63;2.50;;;;;;;10.54;93.13;99985.09;7394951;19;20010;-69
2023/03/23 08:07:49;;;;;;;5.43;3.00;;;;;;;10.50;93.54;99975.63;7395342;19;20025;-68
2023/03/23 08:10:21;;;;;;;3.80;2.45;;;;;;;10.59;94.19;99977.94;7397226;19;20018;-65
2023/03/23 08:12:54;;;;;;;4.15;2.65;;;;;;;10.67;94.24;99979.44;7397263;19;20022;-66
2023/03/23 08:15:30;;;;;;;2.95;2.10;;;;;;;10.74;93.58;99979.16;7394747;19;20014;-67
2023/03/23 08:17:59;;;;;;;3.33;2.38;;;;;;;10.81;94.10;99969.31;7396513;19;20021;-67
2023/03/23 08:20:30;;;;;;;5.18;2.38;;;;;;;10.88;93.78;99968.19;7396604;19;20385;-67
2023/03/23 08:22:59;;;;;;;3.28;1.95;;;;;;;10.95;93.10;99986.34;7396524;19;20086;-66
2023/03/23 08:25:30;;;;;;;4.88;2.10;;;;;;;10.94;92.86;99974.97;7396729;19;20015;-68
2023/03/23 08:28:01;;;;;;;2.97;2.15;;;;;;;11.00;92.41;99989.66;7397337;19;20018;-68
2023/03/23 08:30:32;;;;;;;7.07;1.88;;;;;;;11.01;92.54;99999.25;7396184;19;20372;-69
2023/03/23 08:33:02;;;;;;;2.25;1.77;;;;;;;11.00;92.01;100001.00;7395545;19;20018;-67
2023/03/23 08:35:34;;;;;;;3.60;1.67;;;;;;;10.96;90.77;99990.69;7394946;19;20018;-68
2023/03/23 08:38:03;;;;;;;2.35;1.60;;;;;;;11.00;92.28;100000.16;7396803;19;20039;-68
2023/03/23 08:40:32;;;;;;;2.30;2.10;;;;;;;11.02;91.75;100003.56;7394657;19;20023;-68
2023/03/23 08:43:00;;;;;;;2.92;1.70;;;;;;;11.04;90.70;99999.97;7394381;19;20019;-69
2023/03/23 08:45:30;;;;;;;5.10;1.80;;;;;;;11.07;91.17;99994.63;7394985;19;20029;-66
2023/03/23 08:47:59;;;;;;;3.53;2.10;;;;;;;11.14;91.25;100005.75;7395846;19;20094;-70
2023/03/23 08:50:30;;;;;;;3.55;1.90;;;;;;;11.19;89.92;100011.69;7396419;19;20030;-69
2023/03/23 08:53:01;;;;;;;4.93;1.42;;;;;;;11.25;90.81;100022.00;7394288;19;20015;-70
2023/03/23 08:55:31;;;;;;;2.08;1.80;;;;;;;11.32;91.15;100001.63;7395486;19;20562;-70
2023/03/23 08:58:00;;;;;;;3.67;1.85;;;;;;;11.38;89.98;100004.00;7395811;19;20074;-70
2023/03/23 09:00:29;;;;;;;2.95;1.30;;;;;;;11.45;90.54;100014.28;7396002;19;20026;-70
2023/03/23 09:02:57;;;;;;;2.50;1.67;;;;;;;11.54;90.11;100003.47;7395322;19;20016;-70
2023/03/23 09:05:27;;;;;;;2.10;1.15;;;;;;;11.61;89.59;100009.34;7394474;19;20090;-71
2023/03/23 09:07:58;;;;;;;2.45;1.50;;;;;;;11.68;88.27;100013.44;7394620;19;20022;-69
2023/03/23 09:10:31;;;;;;;3.17;1.63;;;;;;;11.72;87.62;100015.88;7396008;19;20030;-70
2023/03/23 09:13:00;;;;;;;3.08;1.42;;;;;;;11.77;86.82;100007.81;7395812;19;20023;-70
2023/03/23 09:15:28;;;;;;;4.25;1.85;;;;;;;11.84;85.94;100005.81;7395352;19;20014;-69
2023/03/23 09:17:57;;;;;;;2.00;1.33;;;;;;;11.90;88.11;100003.81;7395512;19;20010;-71
2023/03/23 09:20:27;;;;;;;2.83;1.40;;;;;;;11.96;87.04;99999.28;7395695;19;20081;-70
2023/03/23 09:22:57;;;;;;;2.35;1.88;;;;;;;12.03;87.12;100003.34;7394649;19;20075;-69
2023/03/23 09:25:31;;;;;;;2.20;1.17;;;;;;;12.09;85.94;100020.66;7393384;19;20081;-68
2023/03/23 09:28:01;;;;;;;2.30;1.45;;;;;;;12.15;87.28;100009.91;7395066;19;20010;-69
2023/03/23 09:30:32;;;;;;;2.95;1.38;;;;;;;12.24;87.04;100013.94;7395044;19;20035;-69
2023/03/23 09:33:02;;;;;;;2.35;1.60;;;;;;;12.32;87.08;100015.34;7393572;19;20070;-70
2023/03/23 09:35:32;;;;;;;2.88;1.70;;;;;;;12.40;85.95;100020.28;7396336;19;20086;-70
2023/03/23 09:38:02;;;;;;;2.95;1.48;;;;;;;12.49;85.79;100019.91;7393143;19;20488;-69
2023/03/23 09:40:43;;;;;;;2.90;1.85;;;;;;;12.56;83.12;100015.22;7393068;19;20478;-70
2023/03/23 09:43:27;;;;;;;3.22;1.73;;;;;;;12.62;80.05;100032.56;7394068;19;20017;-70
2023/03/23 09:46:03;;;;;;;2.20;1.20;;;;;;;12.67;82.92;100030.59;7397605;19;20014;-70
2023/03/23 09:48:40;;;;;;;3.13;1.75;;;;;;;12.70;81.08;100033.06;7402568;19;20537;-69
2023/03/23 09:51:19;;;;;;;2.45;1.30;;;;;;;12.73;80.89;100043.50;7401937;19;20020;-69
2023/03/23 09:53:52;;;;;;;1.98;1.65;;;;;;;12.79;81.31;100039.72;7399690;19;20093;-70
2023/03/23 09:56:26;;;;;;;1.95;1.42;;;;;;;12.85;82.53;100034.22;7402349;19;20023;-70
2023/03/23 09:58:58;;;;;;;2.05;1.50;;;;;;;12.90;82.90;100036.66;7402033;19;20028;-70
2023/03/23 10:01:32;;;;;;;2.08;1.40;;;;;;;12.95;82.04;100030.25;7402562;19;20087;-70
2023/03/23 10:04:06;;;;;;;2.25;1.40;;;;;;;12.96;79.56;100029.34;7400557;19;20019;-70
2023/03/23 10:06:36;;;;;;;;;;;;;;;12.98;77.25;100029.31;7403472;19;20010;-69
2023/03/23 10:09:06;;;;;;;3.78;2.05;;;;;;;13.00;78.61;100024.81;7402762;19;19925;-70
2023/03/23 10:11:48;;;;;;;3.58;1.50;;;;;;;13.01;81.12;100024.72;7402736;19;20372;-70
2023/03/23 10:14:29;;;;;;;2.53;1.48;;;;;;;13.03;79.68;100020.25;7399226;19;20023;-69
2023/03/23 10:17:06;;;;;;;2.42;1.50;;;;;;;13.07;80.65;100026.25;7401542;19;20084;-72
2023/03/23 10:19:40;;;;;;;3.70;1.73;;;;;;;13.12;80.63;100021.63;7402619;19;20091;-75
2023/03/23 10:22:13;;;;;;;3.50;1.67;;;;;;;13.17;80.35;100024.09;7401112;19;20034;-71
2023/03/23 10:24:46;;;;;;;3.45;1.77;;;;;;;13.22;79.70;100026.50;7397733;19;20046;-70
2023/03/23 10:27:25;;;;;;;4.00;1.88;;;;;;;13.25;78.05;100023.75;7401562;19;20014;-70
2023/03/23 10:29:59;;;;;;;2.53;1.65;;;;;;;13.27;80.11;100014.84;7401489;19;20437;-70
2023/03/23 10:32:49;;;;;;;2.17;1.58;;;;;;;13.29;76.99;100020.03;7400853;19;20094;-70
2023/03/23 10:35:21;;;;;;;1.98;1.52;;;;;;;13.30;77.76;100027.03;7401058;19;20039;-69
2023/03/23 10:37:54;;;;;;;2.30;1.63;;;;;;;13.31;79.16;100029.59;7400158;19;20496;-70
2023/03/23 10:40:26;;;;;;;2.42;1.67;;;;;;;13.33;78.07;100034.78;7400153;19;20082;-70
2023/03/23 10:42:58;;;;;;;3.65;1.50;;;;;;;13.36;78.48;100039.94;7399868;19;20033;-71
2023/03/23 10:45:32;;;;;;;3.05;1.55;;;;;;;13.38;79.13;100032.81;7397964;19;20051;-69
2023/03/23 10:48:09;;;;;;;2.35;1.52;;;;;;;13.42;79.00;100029.16;7399996;19;20014;-71
2023/03/23 10:50:39;;;;;;;3.90;1.55;;;;;;;13.46;79.46;100032.50;7400482;19;20010;-70
2023/03/23 10:53:18;;;;;;;2.70;1.33;;;;;;;13.49;76.76;100025.28;7400042;19;20034;-70
2023/03/23 10:55:47;;;;;;;1.88;1.38;;;;;;;13.53;77.59;100023.38;7401269;19;20014;-70
2023/03/23 10:58:28;;;;;;;2.33;1.58;;;;;;;13.53;74.33;100023.38;7400127;19;20050;-71
2023/03/23 11:00:57;;;;;;;2.83;1.27;;;;;;;13.57;79.13;100014.38;7400638;19;20022;-69
2023/03/23 11:03:41;;;;;;;2.22;1.80;;;;;;;13.58;74.06;100020.53;7399175;19;20032;-70
2023/03/23 11:06:12;;;;;;;1.85;1.55;;;;;;;13.61;78.22;100028.28;7398498;19;20082;-70
2023/03/23 11:08:50;;;;;;;4.70;1.40;;;;;;;13.63;78.58;100027.28;7400377;19;20015;-69
2023/03/23 11:11:21;;;;;;;5.38;1.70;;;;;;;13.64;78.03;100030.81;7399777;19;20011;-69
2023/03/23 11:13:59;;;;;;;2.35;1.60;;;;;;;13.63;75.24;100021.19;7399047;19;20022;-71
2023/03/23 11:16:30;;;;;;;2.95;2.55;;;;;;;13.65;75.76;100017.53;7401335;19;20082;-70
2023/03/23 11:19:01;;;;;;;3.90;1.70;;;;;;;13.66;75.17;100021.03;7397408;19;20029;-71
2023/03/23 11:21:30;;;;;;;2.78;1.67;;;;;;;13.67;74.18;100022.75;7399168;19;20415;-69
2023/03/23 11:24:02;;;;;;;2.08;1.67;;;;;;;13.72;76.49;100030.44;7397298;19;20018;-70
2023/03/23 11:26:34;;;;;;;4.35;1.90;;;;;;;13.73;74.75;100043.53;7399119;19;20025;-70
2023/03/23 11:29:10;;;;;;;2.22;1.70;;;;;;;13.73;71.58;100033.00;7396633;19;20007;-70
2023/03/23 11:31:42;;;;;;;2.67;2.00;;;;;;;13.79;75.76;100031.88;7399193;19;20371;-70
2023/03/23 11:34:17;;;;;;;2.38;1.95;;;;;;;13.84;74.39;100035.16;7397291;19;20358;-70
2023/03/23 11:36:52;;;;;;;3.38;2.30;;;;;;;13.90;74.89;100034.00;7397410;19;20014;-69
2023/03/23 11:39:32;;;;;;;7.95;6.70;;;;;;;13.96;72.52;100031.06;7400086;19;20025;-69
2023/03/23 11:42:03;;;;;;;3.63;3.03;;;;;;;13.98;74.27;100021.31;7396756;19;20011;-70
2023/03/23 11:44:44;;;;;;;4.25;3.85;;;;;;;14.06;69.95;100040.25;7395718;19;20509;-69
2023/03/23 11:47:20;;;;;;;2.75;1.95;;;;;;;14.11;70.75;100030.34;7396615;19;20039;-70
2023/03/23 11:49:57;;;;;;;2.83;2.20;;;;;;;14.17;69.81;100032.69;7399274;19;20019;-70